Time;durP1;ratioP1;P1;durP2;ratioP2;P2;SDS_P1;SDS_P2;PMS_P1;PMS_P2;Temp;Humidity;BMP_temperature;BMP_pressure;BME280_temperature;BME280_humidity;BME280_pressure;Samples;Min_cycle;Max_cycle;Signal;HPM_P1;HPM_P2
2023/02/16 00:01:25;;;;;;;15.82;11.18;;;;;;;7.70;37.70;102118.47;4934432;29;20040;-80
2023/02/16 00:03:54;;;;;;;16.05;10.88;;;;;;;7.69;37.58;102114.88;4945389;29;20076;-81
2023/02/16 00:06:23;;;;;;;17.50;10.48;;;;;;;7.69;37.59;102108.53;4947908;29;20044;-81
2023/02/16 00:08:54;;;;;;;17.13;11.20;;;;;;;7.70;37.79;102107.56;4935306;29;20047;-81
2023/02/16 00:14:14;;;;;;;17.45;11.85;;;;;;;7.67;37.72;102116.81;4928989;29;20811;-81
2023/02/16 00:16:42;;;;;;;16.25;11.30;;;;;;;7.65;37.50;102107.84;4949297;29;20043;-81
2023/02/16 00:19:20;;;;;;;18.15;11.05;;;;;;;7.69;37.89;102105.81;4936395;29;20095;-81
2023/02/16 00:21:49;;;;;;;18.48;11.65;;;;;;;7.65;37.51;102101.50;4948600;29;20103;-81
2023/02/16 00:24:19;;;;;;;16.48;11.07;;;;;;;7.65;37.58;102102.41;4955148;29;20049;-81
2023/02/16 00:26:47;;;;;;;18.98;11.70;;;;;;;7.63;37.54;102103.44;4934883;29;20043;-81
2023/02/16 00:29:20;;;;;;;17.35;11.57;;;;;;;7.63;37.97;102108.88;4945572;29;20035;-81
2023/02/16 00:31:49;;;;;;;17.83;11.40;;;;;;;7.58;37.84;102104.59;4953347;29;20119;-81
2023/02/16 00:34:29;;;;;;;16.63;10.82;;;;;;;7.61;38.02;102108.97;4939503;29;20082;-82
2023/02/16 00:36:59;;;;;;;16.80;11.30;;;;;;;7.57;37.60;102108.28;4943724;29;20047;-81
2023/02/16 00:39:28;;;;;;;19.05;12.15;;;;;;;7.57;37.60;102101.94;4934963;29;20050;-82
2023/02/16 00:41:59;;;;;;;17.45;11.77;;;;;;;7.56;37.90;102084.72;4954908;29;20043;-81
2023/02/16 00:44:31;;;;;;;18.10;11.70;;;;;;;7.55;37.94;102082.94;4935917;29;20126;-81
2023/02/16 00:47:02;;;;;;;17.25;12.02;;;;;;;7.52;37.61;102093.13;4938457;29;20063;-81
2023/02/16 00:49:30;;;;;;;17.17;11.40;;;;;;;7.52;37.87;102090.41;4941681;29;20051;-81
2023/02/16 00:51:58;;;;;;;19.13;12.30;;;;;;;7.51;37.79;102092.28;4954571;29;20383;-81
2023/02/16 00:54:26;;;;;;;20.83;12.23;;;;;;;7.49;37.72;102086.03;4951270;28;20629;-82
2023/02/16 00:56:56;;;;;;;17.60;11.77;;;;;;;7.51;37.70;102091.41;4957978;29;20110;-81
2023/02/16 00:59:24;;;;;;;19.75;11.80;;;;;;;7.47;37.89;102093.38;4952980;29;20042;-82
2023/02/16 01:01:52;;;;;;;19.05;12.18;;;;;;;7.45;37.84;102086.25;4944144;28;20120;-82
2023/02/16 01:04:23;;;;;;;18.77;12.23;;;;;;;7.44;37.74;102082.66;4950783;29;20059;-81
2023/02/16 01:12:23;;;;;;;18.13;11.80;;;;;;;7.35;37.76;102074.13;4937947;29;20044;-81
2023/02/16 01:14:54;;;;;;;17.30;11.43;;;;;;;7.35;37.96;102088.63;4941830;29;20070;-81
2023/02/16 01:17:23;;;;;;;19.38;11.98;;;;;;;7.32;37.92;102077.00;4954824;29;20043;-81
2023/02/16 01:19:53;;;;;;;17.42;11.43;;;;;;;7.30;37.93;102071.66;4945692;29;20122;-81
2023/02/16 01:22:21;;;;;;;17.17;11.48;;;;;;;7.29;37.66;102074.44;4952748;29;20078;-80
2023/02/16 01:24:49;;;;;;;17.08;11.52;;;;;;;7.28;37.92;102076.28;4949324;29;20047;-81
2023/02/16 01:27:18;;;;;;;17.63;11.43;;;;;;;7.27;37.85;102076.41;4935426;29;20039;-80
2023/02/16 01:29:47;;;;;;;17.90;12.05;;;;;;;7.27;38.18;102076.41;4937589;29;20569;-80
2023/02/16 01:32:15;;;;;;;19.98;12.57;;;;;;;7.24;37.94;102072.00;4949674;29;20137;-80
2023/02/16 01:34:43;;;;;;;19.17;12.63;;;;;;;7.24;37.92;102073.81;4951408;29;20050;-81
2023/02/16 01:37:15;;;;;;;17.98;12.68;;;;;;;7.24;37.98;102082.00;4953846;29;20055;-81
2023/02/16 01:39:44;;;;;;;17.50;11.37;;;;;;;7.19;38.11;102077.66;4948145;29;20036;-82
2023/02/16 01:42:22;;;;;;;18.92;12.00;;;;;;;7.22;37.99;102076.63;4945250;29;20302;-82
2023/02/16 01:44:55;;;;;;;18.65;11.60;;;;;;;7.20;38.24;102078.53;4943625;29;20054;-81
2023/02/16 01:47:33;;;;;;;;;;;;;;;6.95;38.60;102075.38;4940612;29;20537;-82
2023/02/16 01:50:01;;;;;;;18.00;10.77;;;;;;;7.12;38.19;102078.97;4943982;29;19922;-80
2023/02/16 01:52:34;;;;;;;17.85;11.55;;;;;;;7.15;38.06;102070.66;4953836;29;20063;-80
2023/02/16 01:55:10;;;;;;;17.90;11.90;;;;;;;7.14;38.08;102074.31;4954975;29;20047;-82
2023/02/16 01:57:43;;;;;;;20.15;12.90;;;;;;;7.11;38.43;102062.72;4952834;29;20059;-81
2023/02/16 02:00:17;;;;;;;18.52;12.40;;;;;;;7.10;38.06;102063.69;4963188;29;20040;-80
2023/02/16 02:02:49;;;;;;;20.30;13.10;;;;;;;7.07;38.25;102055.69;4941587;29;20058;-80
2023/02/16 02:05:34;;;;;;;21.30;13.15;;;;;;;7.05;38.33;102060.31;4946215;29;20110;-80
2023/02/16 02:08:23;;;;;;;23.85;14.02;;;;;;;7.01;38.18;102059.63;4942732;29;20058;-80
2023/02/16 02:11:02;;;;;;;20.38;13.20;;;;;;;6.99;38.33;102069.72;4926261;29;20455;-81
2023/02/16 02:13:38;;;;;;;22.83;14.20;;;;;;;6.95;38.14;102067.22;4931061;29;20142;-81
2023/02/16 02:16:10;;;;;;;22.20;13.80;;;;;;;6.93;38.16;102061.88;4933318;29;20047;-81
2023/02/16 02:18:38;;;;;;;21.48;14.20;;;;;;;6.92;38.44;102056.50;4923463;29;20043;-80
2023/02/16 02:24:53;;;;;;;19.98;12.88;;;;;;;6.85;38.49;102052.38;4944451;29;20067;-80
2023/02/16 02:27:24;;;;;;;20.13;12.48;;;;;;;6.83;38.44;102057.88;4946708;29;20066;-80
2023/02/16 02:30:09;;;;;;;21.65;13.07;;;;;;;6.82;38.60;102053.41;4944572;29;20059;-81
2023/02/16 02:32:51;;;;;;;19.90;12.90;;;;;;;6.81;38.66;102054.34;4933284;29;20585;-81
2023/02/16 02:35:33;;;;;;;19.10;12.48;;;;;;;6.78;38.33;102051.78;4941044;29;20055;-81
2023/02/16 02:38:08;;;;;;;18.65;12.52;;;;;;;6.75;38.38;102049.25;4939155;29;20143;-80
2023/02/16 02:40:47;;;;;;;20.45;12.43;;;;;;;6.73;38.46;102051.13;4939952;29;20147;-81
2023/02/16 02:43:21;;;;;;;19.48;12.50;;;;;;;6.69;38.66;102039.53;4931874;29;20043;-79
2023/02/16 02:45:53;;;;;;;20.80;13.18;;;;;;;6.67;38.42;102038.72;4939899;29;20467;-80
2023/02/16 02:48:22;;;;;;;19.73;12.23;;;;;;;6.64;38.35;102035.28;4927523;29;20058;-80
2023/02/16 02:53:43;;;;;;;19.58;12.57;;;;;;;6.60;38.60;102034.56;4922003;29;20138;-80
2023/02/16 03:01:56;;;;;;;17.77;11.48;;;;;;;6.52;38.67;102027.78;4929369;29;20063;-80
2023/02/16 03:04:28;;;;;;;19.33;12.63;;;;;;;6.48;38.46;102028.88;4925891;29;20047;-81
2023/02/16 03:06:58;;;;;;;19.65;12.30;;;;;;;6.47;38.25;102033.44;4940761;29;20414;-80
2023/02/16 03:09:26;;;;;;;20.48;12.75;;;;;;;6.45;38.36;102033.50;4919287;29;20050;-81
2023/02/16 03:14:50;;;;;;;18.77;11.88;;;;;;;6.41;38.54;102020.16;4944997;29;20506;-81
2023/02/16 03:31:24;;;;;;;21.08;13.18;;;;;;;6.24;38.70;101992.97;4935553;29;20054;-81
2023/02/16 03:33:53;;;;;;;20.30;12.70;;;;;;;6.22;38.71;101989.44;4938169;29;20052;-81
2023/02/16 03:36:22;;;;;;;21.92;13.35;;;;;;;6.19;38.81;101987.78;4937999;29;20544;-81
2023/02/16 03:38:50;;;;;;;19.98;12.45;;;;;;;6.16;38.56;101987.94;4949574;29;20110;-81
2023/02/16 03:41:18;;;;;;;20.27;12.73;;;;;;;6.16;38.71;102004.22;4949711;29;20043;-81
2023/02/16 03:43:46;;;;;;;19.42;13.02;;;;;;;6.14;38.88;101994.38;4945227;29;20119;-79
2023/02/16 03:46:14;;;;;;;20.95;13.68;;;;;;;6.13;39.01;102001.66;4937849;29;20688;-82
2023/02/16 03:48:43;;;;;;;20.48;12.40;;;;;;;6.12;38.90;102001.75;4953891;29;20763;-82
2023/02/16 03:51:11;;;;;;;17.70;12.20;;;;;;;6.10;38.89;101999.13;4942185;29;20051;-82
2023/02/16 03:53:39;;;;;;;20.83;12.95;;;;;;;6.09;38.74;101997.34;4952804;29;20051;-82
2023/02/16 03:56:07;;;;;;;20.40;12.85;;;;;;;6.07;38.96;102000.16;4943519;28;20042;-82
2023/02/16 03:58:35;;;;;;;19.83;12.27;;;;;;;6.06;39.16;102006.53;4945898;29;20032;-81
2023/02/16 04:01:03;;;;;;;18.83;12.50;;;;;;;6.06;39.07;102001.09;4930108;29;20095;-81
2023/02/16 04:03:31;;;;;;;20.70;12.80;;;;;;;6.05;38.84;102012.91;4946278;29;20446;-82
2023/02/16 04:06:00;;;;;;;18.70;11.93;;;;;;;6.06;38.90;102011.09;4935331;29;20043;-81
2023/02/16 04:08:28;;;;;;;19.70;12.93;;;;;;;6.04;39.06;102013.00;4946205;29;20158;-80
2023/02/16 04:10:56;;;;;;;18.38;11.82;;;;;;;6.04;39.06;102004.84;4950291;29;20043;-82
2023/02/16 04:13:23;;;;;;;18.85;12.18;;;;;;;6.03;39.13;102004.00;4943808;29;20337;-82
2023/02/16 04:15:51;;;;;;;20.02;12.38;;;;;;;6.04;39.14;101999.41;4950611;29;20358;-82
2023/02/16 04:18:19;;;;;;;19.73;12.48;;;;;;;6.04;39.16;102002.13;4941183;29;20047;-82
2023/02/16 04:20:47;;;;;;;20.48;12.63;;;;;;;6.04;39.24;101996.69;4936410;29;20170;-83
2023/02/16 04:23:16;;;;;;;19.17;12.00;;;;;;;6.04;39.10;101997.56;4946851;29;20051;-82
2023/02/16 04:25:44;;;;;;;19.27;12.20;;;;;;;6.03;39.19;101995.84;4938783;29;20044;-83
2023/02/16 04:28:12;;;;;;;19.70;12.23;;;;;;;6.03;39.22;101994.97;4932322;29;20139;-82
2023/02/16 04:30:39;;;;;;;20.23;11.93;;;;;;;6.03;39.33;102001.28;4950825;29;20047;-82
2023/02/16 04:33:07;;;;;;;22.17;12.98;;;;;;;6.00;39.36;101990.53;4939434;29;20115;-81
2023/02/16 04:35:35;;;;;;;20.92;13.02;;;;;;;6.02;39.37;101996.78;4957176;29;20051;-83
2023/02/16 04:38:03;;;;;;;20.73;12.68;;;;;;;6.01;39.42;101994.16;4958522;29;20090;-83
2023/02/16 04:40:33;;;;;;;20.25;12.95;;;;;;;6.01;39.26;102007.72;4950215;29;20059;-83
2023/02/16 04:43:00;;;;;;;20.63;12.98;;;;;;;5.99;39.38;102004.22;4936475;29;20249;-82
2023/02/16 04:45:28;;;;;;;22.50;12.82;;;;;;;5.99;39.36;102001.50;4928798;29;20055;-82
2023/02/16 04:47:56;;;;;;;20.27;12.38;;;;;;;5.99;39.39;102002.38;4946536;29;20043;-81
2023/02/16 04:50:24;;;;;;;19.48;12.95;;;;;;;5.98;39.34;101999.72;4898829;29;20086;-82
2023/02/16 04:52:52;;;;;;;22.23;14.15;;;;;;;5.96;39.24;101998.91;4938999;29;20138;-81
2023/02/16 04:55:20;;;;;;;20.02;13.70;;;;;;;5.96;39.26;101996.19;4950720;29;20047;-82
2023/02/16 04:57:49;;;;;;;23.05;13.98;;;;;;;5.96;39.41;101996.19;4946313;29;20047;-82
2023/02/16 05:00:18;;;;;;;21.17;12.63;;;;;;;5.94;39.46;101993.59;4935263;29;20040;-82
2023/02/16 05:02:46;;;;;;;23.27;13.55;;;;;;;5.91;39.69;101987.41;4952512;29;20035;-83
2023/02/16 05:05:14;;;;;;;21.35;13.88;;;;;;;5.91;39.44;102003.72;4953619;29;20046;-81
2023/02/16 05:07:42;;;;;;;23.10;14.10;;;;;;;5.89;39.16;101997.47;4956534;29;20059;-79
2023/02/16 05:10:10;;;;;;;21.85;13.85;;;;;;;5.89;39.47;101994.75;4951208;28;20043;-81
2023/02/16 05:15:25;;;;;;;21.83;13.45;;;;;;;5.86;39.52;102003.97;4931751;29;20058;-81
2023/02/16 05:17:53;;;;;;;21.70;13.48;;;;;;;5.85;39.41;102004.03;4926822;29;20044;-81
2023/02/16 05:21:28;;;;;;;20.98;13.40;;;;;;;5.84;39.53;102005.84;4952337;29;20053;-82
2023/02/16 05:23:09;;;;;;;20.63;12.75;;;;;;;5.82;39.77;102007.75;4940805;29;20086;-82
2023/02/16 05:25:36;;;;;;;22.25;13.23;;;;;;;5.82;39.60;102009.59;4927743;29;20040;-82
2023/02/16 05:28:04;;;;;;;21.67;13.25;;;;;;;5.81;39.68;102006.00;4939628;29;20074;-82
2023/02/16 05:30:34;;;;;;;19.40;12.35;;;;;;;5.82;39.53;101998.72;4934109;29;20043;-82
2023/02/16 05:33:02;;;;;;;21.40;13.27;;;;;;;5.79;39.64;101999.75;4949506;29;20137;-81
2023/02/16 05:35:30;;;;;;;22.67;13.20;;;;;;;5.79;39.73;102007.06;4945200;29;20113;-82
2023/02/16 05:37:58;;;;;;;22.67;13.15;;;;;;;5.79;39.53;102007.06;4949347;29;20054;-81
2023/02/16 05:40:26;;;;;;;20.52;13.23;;;;;;;5.78;39.36;102011.59;4936028;29;20138;-81
2023/02/16 05:42:54;;;;;;;20.58;12.95;;;;;;;5.77;39.68;102017.09;4950475;29;20036;-82
2023/02/16 05:45:22;;;;;;;20.50;12.98;;;;;;;5.76;39.57;102016.22;4932333;29;20040;-81
2023/02/16 05:47:52;;;;;;;22.38;13.07;;;;;;;5.76;39.51;102015.34;4946796;29;20490;-82
2023/02/16 05:50:22;;;;;;;20.25;13.32;;;;;;;5.72;39.68;102017.31;4933037;29;20499;-82
2023/02/16 05:52:50;;;;;;;24.30;14.38;;;;;;;5.73;39.61;102007.34;4935765;29;20139;-82
2023/02/16 05:55:18;;;;;;;23.85;13.85;;;;;;;5.72;39.68;102009.16;4939453;29;20482;-81
2023/02/16 05:57:46;;;;;;;22.60;14.45;;;;;;;5.70;39.67;102008.38;4931550;29;20055;-82
2023/02/16 06:00:16;;;;;;;22.17;14.20;;;;;;;5.71;39.63;102006.56;4934496;29;20462;-83
2023/02/16 06:02:44;;;;;;;20.45;13.27;;;;;;;5.67;39.70;102005.81;4925340;29;20143;-82
2023/02/16 06:05:15;;;;;;;20.48;13.68;;;;;;;5.68;39.87;102002.13;4931005;29;20415;-82
2023/02/16 06:07:45;;;;;;;21.60;13.73;;;;;;;5.66;39.71;102009.47;4938519;28;20479;-81
2023/02/16 06:10:15;;;;;;;20.80;13.32;;;;;;;5.65;39.67;102011.31;4942612;28;20067;-82
2023/02/16 06:12:43;;;;;;;24.48;14.23;;;;;;;5.62;39.85;102008.72;4936053;29;20056;-81
2023/02/16 06:15:12;;;;;;;20.65;13.38;;;;;;;5.64;39.73;102005.94;4931134;28;20531;-83
2023/02/16 06:17:39;;;;;;;20.58;13.32;;;;;;;5.62;39.83;102006.00;4938988;29;20129;-82
2023/02/16 06:20:08;;;;;;;22.73;14.18;;;;;;;5.63;39.95;102004.19;4927318;29;20159;-83
2023/02/16 06:22:37;;;;;;;23.63;14.02;;;;;;;5.62;39.65;101999.72;4937058;29;20047;-83
2023/02/16 06:25:06;;;;;;;21.17;13.57;;;;;;;5.61;39.96;102004.28;4941912;28;20048;-82
2023/02/16 06:27:34;;;;;;;24.45;14.98;;;;;;;5.61;39.82;102003.41;4935975;29;20047;-82
2023/02/16 06:30:02;;;;;;;20.98;13.20;;;;;;;5.60;39.94;101993.47;4927757;28;20456;-81
2023/02/16 06:32:32;;;;;;;20.42;12.60;;;;;;;5.60;39.84;101998.91;4933809;29;20103;-82
2023/02/16 06:35:03;;;;;;;21.02;13.27;;;;;;;5.61;39.91;102003.41;4933415;29;20050;-83
2023/02/16 06:37:30;;;;;;;24.02;14.52;;;;;;;5.57;39.83;101997.22;4931724;29;20066;-82
2023/02/16 06:40:00;;;;;;;22.65;14.80;;;;;;;5.59;40.02;101994.44;4942875;29;20040;-82
2023/02/16 06:42:28;;;;;;;22.38;13.93;;;;;;;5.58;39.92;102009.84;4935085;29;20058;-83
2023/02/16 06:44:55;;;;;;;23.35;13.52;;;;;;;5.60;40.03;102015.22;4945482;29;20150;-83
2023/02/16 06:47:23;;;;;;;21.05;13.05;;;;;;;5.60;39.86;102021.53;4950190;29;20053;-83
2023/02/16 06:49:51;;;;;;;21.85;13.90;;;;;;;5.60;40.02;102017.94;4932218;29;20040;-83
2023/02/16 06:52:19;;;;;;;18.75;13.02;;;;;;;5.62;39.94;102013.31;4951756;29;20114;-83
2023/02/16 06:54:47;;;;;;;20.58;13.65;;;;;;;5.62;39.87;102013.31;4936524;29;20047;-83
2023/02/16 06:57:16;;;;;;;21.60;13.32;;;;;;;5.64;40.02;102006.81;4943026;29;20056;-81
2023/02/16 06:59:44;;;;;;;21.55;13.68;;;;;;;5.64;39.96;102027.66;4943485;28;20083;-81
2023/02/16 07:02:12;;;;;;;21.58;13.27;;;;;;;5.65;40.00;102024.88;4947603;28;20336;-81
2023/02/16 07:04:40;;;;;;;20.85;12.95;;;;;;;5.66;39.86;102015.78;4935469;29;20648;-82
2023/02/16 07:07:08;;;;;;;22.38;12.80;;;;;;;5.67;40.00;102019.38;4951034;28;20040;-81
2023/02/16 07:09:36;;;;;;;20.10;12.85;;;;;;;5.68;40.16;102023.88;4939484;28;20043;-81
2023/02/16 07:12:06;;;;;;;20.30;13.52;;;;;;;5.68;40.14;102015.72;4950817;29;20035;-81
2023/02/16 07:14:37;;;;;;;22.73;14.50;;;;;;;5.71;40.16;102018.25;4937871;29;20044;-81
2023/02/16 07:17:08;;;;;;;21.45;13.15;;;;;;;5.68;40.52;102018.44;4935967;29;20053;-81
2023/02/16 07:19:39;;;;;;;22.85;13.52;;;;;;;5.72;40.17;102013.72;4942800;29;20047;-80
2023/02/16 07:22:08;;;;;;;21.80;13.38;;;;;;;5.72;39.98;102017.31;4949881;29;20048;-81
2023/02/16 07:24:35;;;;;;;23.38;14.20;;;;;;;5.74;39.83;102015.41;4957019;23;20042;-80
2023/02/16 07:27:04;;;;;;;22.65;14.77;;;;;;;5.75;39.94;102014.47;4952467;29;20132;-80
2023/02/16 07:29:32;;;;;;;25.85;14.90;;;;;;;5.77;39.87;102011.66;4953358;29;20105;-80
2023/02/16 07:32:01;;;;;;;21.55;12.85;;;;;;;5.79;39.85;102001.63;4936233;29;20047;-80
2023/02/16 07:34:29;;;;;;;21.65;13.60;;;;;;;5.79;39.69;102005.19;4932618;29;20071;-80
2023/02/16 07:36:58;;;;;;;20.05;12.93;;;;;;;5.78;39.57;102006.16;4953002;29;20050;-80
2023/02/16 07:39:27;;;;;;;25.60;13.57;;;;;;;5.79;39.84;102017.91;4933140;29;20044;-79
2023/02/16 07:41:55;;;;;;;22.42;13.95;;;;;;;5.79;39.86;102026.91;4943381;29;20047;-81
2023/02/16 07:44:26;;;;;;;21.73;13.38;;;;;;;5.80;39.83;102017.81;4963145;29;20051;-80
2023/02/16 07:46:53;;;;;;;23.02;14.15;;;;;;;5.79;39.64;102024.19;4973254;28;20053;-80
2023/02/16 07:49:23;;;;;;;22.42;14.57;;;;;;;5.80;39.93;102020.53;4975914;28;20035;-81
2023/02/16 07:51:51;;;;;;;22.00;13.77;;;;;;;5.79;39.98;102016.06;4939966;29;20050;-80
2023/02/16 07:54:19;;;;;;;22.83;14.63;;;;;;;5.78;39.93;102008.88;4948468;29;20040;-80
2023/02/16 07:56:46;;;;;;;23.42;15.05;;;;;;;5.78;39.84;102003.47;4936483;29;20051;-81
2023/02/16 07:59:15;;;;;;;24.10;14.77;;;;;;;5.79;39.89;102009.78;4936346;29;20050;-80
2023/02/16 08:01:43;;;;;;;23.33;13.23;;;;;;;5.79;39.95;102017.91;4938499;29;20604;-82
2023/02/16 08:04:11;;;;;;;24.23;14.55;;;;;;;5.78;40.00;102021.59;4956526;28;20047;-80
2023/02/16 08:06:40;;;;;;;22.10;13.98;;;;;;;5.81;39.93;102026.84;4938424;29;20075;-80
2023/02/16 08:09:08;;;;;;;21.90;13.65;;;;;;;5.80;39.97;102022.38;4946750;29;20043;-80
2023/02/16 08:11:36;;;;;;;21.30;13.77;;;;;;;5.82;40.01;102037.66;4938759;29;20384;-79
2023/02/16 08:14:04;;;;;;;21.13;13.23;;;;;;;5.83;39.95;102039.41;4938861;29;20074;-81
2023/02/16 08:16:31;;;;;;;23.10;13.77;;;;;;;5.84;40.00;102029.44;4954382;29;20130;-79
2023/02/16 08:19:02;;;;;;;19.92;13.30;;;;;;;5.86;40.15;102027.53;4937466;29;20052;-79
2023/02/16 08:21:32;;;;;;;22.67;13.43;;;;;;;5.87;39.89;102008.41;4937788;29;20050;-80
2023/02/16 08:24:03;;;;;;;23.58;14.38;;;;;;;5.86;39.81;102006.66;4950226;29;20039;-80
2023/02/16 08:26:35;;;;;;;21.02;13.63;;;;;;;5.89;40.06;102011.94;4960247;29;20044;-79
2023/02/16 08:29:04;;;;;;;23.37;14.00;;;;;;;5.88;40.07;102021.03;4945324;29;20495;-80
2023/02/16 08:31:35;;;;;;;22.05;13.10;;;;;;;5.91;40.00;102028.16;4950408;29;20340;-81
2023/02/16 08:34:06;;;;;;;20.00;12.52;;;;;;;5.93;40.09;102038.00;4937439;29;20043;-81
2023/02/16 08:36:37;;;;;;;20.75;12.70;;;;;;;5.95;39.93;102027.91;4950763;29;20055;-81
2023/02/16 08:39:10;;;;;;;20.40;13.07;;;;;;;5.98;40.01;102032.34;4933848;29;20051;-80
2023/02/16 08:41:39;;;;;;;22.23;12.65;;;;;;;5.98;40.05;102022.34;4942780;29;20473;-79
2023/02/16 08:44:08;;;;;;;23.52;13.68;;;;;;;6.01;39.92;102026.75;4938497;29;20043;-80
2023/02/16 08:46:39;;;;;;;22.40;12.90;;;;;;;6.04;39.98;102013.00;4955911;29;20455;-80
2023/02/16 08:49:08;;;;;;;21.20;13.32;;;;;;;6.06;39.95;102024.69;4952132;29;20090;-79
2023/02/16 08:51:40;;;;;;;19.30;12.63;;;;;;;6.10;40.19;102030.84;4937554;29;20050;-79
2023/02/16 08:54:14;;;;;;;19.55;12.70;;;;;;;6.11;39.99;102028.06;4936503;29;20050;-79
2023/02/16 08:56:44;;;;;;;21.42;13.20;;;;;;;6.14;40.01;102032.44;4936489;29;20285;-79
2023/02/16 08:59:13;;;;;;;21.02;13.35;;;;;;;6.17;40.33;102024.16;4936209;29;20501;-78
2023/02/16 09:01:40;;;;;;;21.00;13.52;;;;;;;6.19;40.22;102022.25;4936623;29;20122;-79
2023/02/16 09:04:08;;;;;;;21.88;13.15;;;;;;;6.20;40.25;102024.00;4951686;29;20058;-79
2023/02/16 09:06:38;;;;;;;20.63;13.10;;;;;;;6.26;40.23;102026.41;4952503;29;20103;-77
2023/02/16 09:09:07;;;;;;;21.25;13.43;;;;;;;6.28;40.13;102030.78;4924189;29;20043;-80
2023/02/16 09:11:37;;;;;;;22.90;13.85;;;;;;;6.34;40.19;102027.75;4949074;29;20102;-78
2023/02/16 09:14:05;;;;;;;24.85;13.45;;;;;;;6.38;40.16;102026.63;4935898;29;20083;-79
2023/02/16 09:16:34;;;;;;;21.95;13.88;;;;;;;6.43;40.35;102029.13;4936732;29;20565;-79
2023/02/16 09:19:02;;;;;;;21.10;13.55;;;;;;;6.49;40.31;102028.81;4935673;29;20063;-79
2023/02/16 09:21:32;;;;;;;22.17;13.50;;;;;;;6.56;40.40;102015.75;4962724;29;20067;-79
2023/02/16 09:24:02;;;;;;;23.67;15.18;;;;;;;6.59;40.53;102019.22;4959556;29;20038;-79
2023/02/16 09:26:32;;;;;;;21.88;13.63;;;;;;;6.68;40.34;102023.28;4959717;28;20051;-79
2023/02/16 09:29:02;;;;;;;23.40;13.95;;;;;;;6.75;40.29;102027.47;4942542;29;20037;-78
2023/02/16 09:31:32;;;;;;;20.83;13.95;;;;;;;6.82;40.29;102032.50;4936311;29;20076;-79
2023/02/16 09:34:03;;;;;;;23.80;14.52;;;;;;;6.88;40.26;102031.28;4935926;29;20512;-79
2023/02/16 09:36:31;;;;;;;21.55;13.32;;;;;;;6.91;40.30;102024.81;4952681;29;20043;-78
2023/02/16 09:39:01;;;;;;;22.75;13.73;;;;;;;6.98;40.09;102037.13;4943807;29;20506;-77
2023/02/16 09:41:41;;;;;;;21.70;14.07;;;;;;;7.06;39.85;102040.31;4947605;29;20089;-78
2023/02/16 09:44:24;;;;;;;21.55;13.30;;;;;;;7.10;39.82;102061.84;4946676;29;20085;-79
2023/02/16 09:46:56;;;;;;;22.23;13.18;;;;;;;7.14;40.26;102055.28;4951727;29;20047;-78
2023/02/16 09:49:31;;;;;;;20.80;12.60;;;;;;;7.17;39.87;102056.94;4952333;29;20043;-79
2023/02/16 09:52:06;;;;;;;20.17;12.82;;;;;;;7.23;40.05;102050.28;4953359;29;20051;-79
2023/02/16 09:54:41;;;;;;;20.95;12.45;;;;;;;7.28;39.92;102059.94;4936536;29;20104;-79
2023/02/16 09:57:19;;;;;;;18.80;12.18;;;;;;;7.34;40.07;102062.34;4974199;29;20145;-79
2023/02/16 09:59:56;;;;;;;20.15;12.05;;;;;;;7.38;39.90;102061.22;4968110;29;20079;-79
2023/02/16 10:02:37;;;;;;;17.45;12.70;;;;;;;7.44;39.85;102060.88;4944132;29;20137;-78
2023/02/16 10:05:31;;;;;;;19.83;13.02;;;;;;;7.47;39.83;102066.16;4951154;29;20122;-80
2023/02/16 10:08:01;;;;;;;;;;;;;;;7.26;40.30;102064.63;4945752;29;20059;-78
2023/02/16 10:10:46;;;;;;;17.95;11.98;;;;;;;7.54;39.86;102066.69;4940553;29;19958;-78
2023/02/16 10:13:24;;;;;;;19.55;11.75;;;;;;;7.60;39.64;102066.34;4935946;29;20471;-78
2023/02/16 10:15:57;;;;;;;20.88;13.45;;;;;;;7.64;39.78;102058.88;4933918;29;20125;-79
2023/02/16 10:18:29;;;;;;;20.85;13.70;;;;;;;7.66;39.54;102056.97;4927923;28;20043;-79
2023/02/16 10:21:02;;;;;;;21.02;13.10;;;;;;;7.69;39.84;102065.81;4932721;29;20047;-78
2023/02/16 10:23:36;;;;;;;;;;;;;;;7.47;40.31;102062.53;4945774;28;20093;-79
2023/02/16 10:26:15;;;;;;;22.23;12.57;;;;;;;7.72;39.78;102062.06;4945710;29;19973;-78
2023/02/16 10:28:47;;;;;;;17.15;11.57;;;;;;;7.78;39.13;102061.69;4946554;28;20055;-79
2023/02/16 10:31:23;;;;;;;19.90;12.27;;;;;;;7.80;39.59;102057.94;4933460;29;20058;-79
2023/02/16 10:34:04;;;;;;;18.83;12.98;;;;;;;7.82;39.63;102055.13;4932154;29;20345;-78
2023/02/16 10:36:46;;;;;;;18.67;12.55;;;;;;;7.82;39.74;102056.00;4944715;29;20052;-78
2023/02/16 10:39:21;;;;;;;22.48;13.75;;;;;;;7.82;39.52;102061.44;4930120;29;20295;-77
2023/02/16 10:41:54;;;;;;;19.95;12.68;;;;;;;7.85;39.79;102066.72;4932131;29;20063;-80
2023/02/16 10:44:27;;;;;;;22.38;13.48;;;;;;;7.88;39.66;102060.22;4934733;29;20046;-79
2023/02/16 10:47:00;;;;;;;19.27;12.65;;;;;;;7.87;39.97;102062.06;4946150;28;20056;-79
2023/02/16 10:49:31;;;;;;;18.48;12.98;;;;;;;7.90;39.86;102055.56;4931505;29;20126;-80
2023/02/16 10:52:02;;;;;;;21.58;14.10;;;;;;;7.92;39.71;102054.50;4935102;29;20119;-80
2023/02/16 10:54:32;;;;;;;21.05;13.95;;;;;;;7.92;39.75;102046.34;4945561;29;20485;-81
2023/02/16 10:57:05;;;;;;;21.10;13.32;;;;;;;7.95;39.63;102059.78;4942348;29;20059;-80
2023/02/16 10:59:37;;;;;;;21.20;13.65;;;;;;;7.95;39.87;102062.50;4942657;29;20130;-79
2023/02/16 11:02:17;;;;;;;;;;;;;;;7.71;40.18;102061.16;4951487;29;20047;-78
2023/02/16 11:04:47;;;;;;;17.52;11.18;;;;;;;7.94;39.89;102057.13;4962277;29;19927;-78
2023/02/16 11:07:17;;;;;;;21.88;14.05;;;;;;;7.99;39.82;102043.25;4959131;29;20044;-79
2023/02/16 11:09:49;;;;;;;20.08;13.50;;;;;;;8.01;39.83;102041.31;4933019;29;20521;-79
2023/02/16 11:12:25;;;;;;;19.50;12.55;;;;;;;8.03;40.03;102042.09;4954397;29;20031;-80
2023/02/16 11:14:56;;;;;;;21.10;13.27;;;;;;;8.03;39.79;102032.06;4940912;29;20047;-78
2023/02/16 11:17:26;;;;;;;21.80;14.73;;;;;;;8.04;39.40;102031.09;4957427;28;20305;-79
2023/02/16 11:19:58;;;;;;;19.88;13.60;;;;;;;8.05;39.79;102024.69;4938227;29;20047;-80
2023/02/16 11:22:35;;;;;;;20.00;13.43;;;;;;;8.07;39.85;102019.13;4960674;29;20051;-79
2023/02/16 11:25:24;;;;;;;22.15;13.95;;;;;;;8.08;39.84;102012.72;4945112;29;20102;-80
2023/02/16 11:27:54;;;;;;;22.88;14.10;;;;;;;8.08;39.98;102008.16;4953493;28;20043;-80
2023/02/16 11:30:32;;;;;;;22.20;14.07;;;;;;;8.14;39.99;101996.03;4943931;28;20150;-80
2023/02/16 11:33:04;;;;;;;18.80;13.32;;;;;;;8.14;39.84;102002.34;4941520;29;20043;-80
2023/02/16 11:35:40;;;;;;;19.92;12.98;;;;;;;8.13;40.00;101999.69;4956762;29;20426;-80
2023/02/16 11:38:26;;;;;;;19.67;13.35;;;;;;;8.17;40.27;102004.03;4945511;29;20070;-80
2023/02/16 11:40:55;;;;;;;19.55;13.00;;;;;;;8.20;40.23;102001.09;4932613;29;20115;-80
2023/02/16 11:43:28;;;;;;;21.00;13.18;;;;;;;8.24;40.05;102000.84;4963326;29;20189;-79
2023/02/16 11:45:58;;;;;;;19.02;12.85;;;;;;;8.27;40.26;101994.31;4949998;29;20092;-79
2023/02/16 11:48:30;;;;;;;20.48;13.07;;;;;;;8.30;40.38;101983.22;4948166;29;20042;-80
2023/02/16 11:51:01;;;;;;;19.02;12.60;;;;;;;8.34;40.20;101982.09;4943922;29;20059;-80
2023/02/16 11:53:31;;;;;;;21.42;13.27;;;;;;;8.39;40.26;101979.06;4958237;28;20470;-81
2023/02/16 11:56:17;;;;;;;20.23;12.43;;;;;;;8.44;40.48;101977.81;4933613;29;20051;-80
2023/02/16 11:59:02;;;;;;;19.20;13.00;;;;;;;8.44;40.24;101979.66;4947555;29;20043;-80
2023/02/16 12:01:43;;;;;;;19.52;12.95;;;;;;;8.52;40.66;101978.22;4949941;29;20089;-78
2023/02/16 12:04:22;;;;;;;19.52;12.70;;;;;;;8.55;40.62;101975.31;4949686;28;20043;-79
2023/02/16 12:06:57;;;;;;;19.40;13.00;;;;;;;8.59;40.35;101979.59;4957525;29;20048;-78
2023/02/16 12:09:32;;;;;;;21.85;14.02;;;;;;;8.63;40.53;101988.47;4945100;29;20043;-79
2023/02/16 12:12:10;;;;;;;21.40;13.55;;;;;;;8.66;40.37;101980.13;4947233;29;20046;-79
2023/02/16 12:14:47;;;;;;;21.63;13.88;;;;;;;8.68;40.77;101973.56;4953678;29;20047;-78
2023/02/16 12:17:40;;;;;;;19.75;14.10;;;;;;;8.70;40.50;101977.09;4943175;28;43251;-79